createdAt,value
2017-10-07T00:00:04.910Z,21.73
2017-10-07T00:02:08.438Z,25.80
2017-10-07T00:04:11.261Z,19.93
2017-10-07T00:06:13.915Z,16.27
2017-10-07T00:08:16.616Z,33.53
2017-10-07T00:10:19.397Z,23.30
2017-10-07T00:12:22.079Z,40.50
2017-10-07T00:14:24.722Z,27.33
2017-10-07T00:16:27.379Z,23.77
2017-10-07T00:18:30.049Z,17.70
2017-10-07T00:20:32.807Z,19.17
2017-10-07T00:22:36.235Z,26.07
2017-10-07T00:24:39.180Z,20.67
2017-10-07T00:26:42.771Z,20.90
2017-10-07T00:28:46.185Z,25.27
2017-10-07T00:30:49.026Z,27.70
2017-10-07T00:32:51.668Z,24.80
2017-10-07T00:34:54.411Z,22.27
2017-10-07T00:36:57.960Z,27.83
2017-10-07T00:39:00.668Z,21.57
2017-10-07T00:41:04.077Z,22.70
2017-10-07T00:43:07.521Z,26.83
2017-10-07T00:45:10.266Z,23.20
2017-10-07T00:47:12.944Z,29.53
2017-10-07T00:49:15.651Z,20.83
2017-10-07T00:51:18.302Z,19.73
2017-10-07T00:53:20.959Z,25.43
2017-10-07T00:55:23.661Z,27.00
2017-10-07T00:57:26.413Z,24.80
2017-10-07T00:59:29.102Z,28.27
2017-10-07T01:01:31.946Z,17.70
2017-10-07T01:03:35.375Z,25.63
2017-10-07T01:05:38.162Z,21.53
2017-10-07T01:07:41.035Z,26.10
2017-10-07T01:09:43.705Z,20.90
2017-10-07T01:11:46.501Z,22.77
2017-10-07T01:13:49.161Z,24.83
2017-10-07T01:15:51.950Z,29.07
2017-10-07T01:17:55.506Z,39.00
2017-10-07T01:19:58.974Z,21.60
2017-10-07T01:22:02.014Z,25.80
2017-10-07T01:24:04.721Z,28.93
2017-10-07T01:26:07.464Z,27.93
2017-10-07T01:28:10.209Z,24.17
2017-10-07T01:30:13.070Z,14.33
2017-10-07T01:32:15.832Z,31.30
2017-10-07T01:34:18.563Z,24.23
2017-10-07T01:36:22.191Z,22.30
2017-10-07T01:38:24.893Z,24.50
2017-10-07T01:40:27.556Z,25.07
2017-10-07T01:42:30.480Z,27.33
2017-10-07T01:44:33.152Z,19.57
2017-10-07T01:46:35.838Z,13.90
2017-10-07T01:48:38.595Z,23.40
2017-10-07T01:50:41.273Z,20.17
2017-10-07T01:52:43.923Z,25.50
2017-10-07T01:54:46.639Z,15.73
2017-10-07T01:56:49.300Z,25.10
2017-10-07T01:58:52.028Z,27.23
2017-10-07T02:00:54.817Z,26.67
2017-10-07T02:02:57.480Z,18.90
2017-10-07T02:05:00.264Z,21.30
2017-10-07T02:07:02.914Z,17.53
2017-10-07T02:09:06.421Z,31.17
2017-10-07T02:11:10.011Z,16.63
2017-10-07T02:13:13.425Z,23.73
2017-10-07T02:15:16.111Z,19.40
2017-10-07T02:17:18.898Z,17.27
2017-10-07T02:19:21.582Z,16.07
2017-10-07T02:21:24.351Z,21.20
2017-10-07T02:23:26.998Z,17.63
2017-10-07T02:25:30.453Z,21.97
2017-10-07T02:27:33.112Z,35.43
2017-10-07T02:29:35.867Z,14.57
2017-10-07T02:31:38.575Z,13.57
2017-10-07T02:33:41.247Z,19.03
2017-10-07T02:35:43.937Z,31.00
2017-10-07T02:37:46.671Z,25.93
2017-10-07T02:39:49.403Z,14.13
2017-10-07T02:41:52.375Z,19.93
2017-10-07T02:43:55.112Z,19.63
2017-10-07T02:45:57.744Z,16.70
2017-10-07T02:48:01.173Z,14.27
2017-10-07T02:50:03.841Z,28.57
2017-10-07T02:52:06.797Z,21.47
2017-10-07T02:54:09.427Z,22.53
2017-10-07T02:56:12.140Z,26.93
2017-10-07T02:58:14.823Z,21.23
2017-10-07T03:00:17.540Z,22.47
2017-10-07T03:02:20.486Z,19.93
2017-10-07T03:04:23.285Z,15.43
2017-10-07T03:06:25.982Z,17.10
2017-10-07T03:08:28.863Z,16.93
2017-10-07T03:10:31.538Z,23.63
2017-10-07T03:12:34.257Z,14.27
2017-10-07T03:14:37.739Z,10.37
2017-10-07T03:16:40.382Z,15.10
2017-10-07T03:18:43.226Z,16.70
2017-10-07T03:20:45.908Z,18.03
2017-10-07T03:22:49.416Z,24.70
2017-10-07T03:24:52.839Z,17.80
2017-10-07T03:26:55.506Z,17.70
2017-10-07T03:28:58.145Z,18.90
2017-10-07T03:31:00.796Z,10.43
2017-10-07T03:33:03.514Z,16.30
2017-10-07T03:35:08.253Z,21.60
2017-10-07T03:37:10.957Z,14.63
2017-10-07T03:39:13.630Z,16.67
2017-10-07T03:41:16.319Z,23.07
2017-10-07T03:43:19.130Z,14.93
2017-10-07T03:45:22.577Z,16.40
2017-10-07T03:47:25.236Z,15.50
2017-10-07T03:49:27.985Z,20.77
2017-10-07T03:51:31.438Z,25.20
2017-10-07T03:53:34.106Z,15.90
2017-10-07T03:55:36.755Z,16.60
2017-10-07T03:57:39.422Z,8.40
2017-10-07T03:59:42.210Z,9.00
2017-10-07T04:01:44.871Z,13.40
2017-10-07T04:03:48.511Z,13.97
2017-10-07T04:05:51.364Z,19.73
2017-10-07T04:07:54.001Z,18.07
2017-10-07T04:09:56.728Z,10.83
2017-10-07T04:11:59.423Z,11.80
2017-10-07T04:14:02.151Z,13.87
2017-10-07T04:16:05.853Z,15.17
2017-10-07T04:18:09.278Z,13.20
2017-10-07T04:20:11.978Z,12.57
2017-10-07T04:22:14.661Z,19.50
2017-10-07T04:24:17.508Z,23.23
2017-10-07T04:26:20.352Z,16.40
2017-10-07T04:28:23.806Z,9.37
2017-10-07T04:30:26.473Z,6.87
2017-10-07T04:32:29.143Z,9.10
2017-10-07T04:34:31.943Z,13.90
2017-10-07T04:36:34.894Z,12.03
2017-10-07T04:38:37.592Z,4.67
2017-10-07T04:40:40.341Z,8.50
2017-10-07T04:42:42.992Z,12.40
2017-10-07T04:44:46.415Z,16.03
2017-10-07T04:46:49.430Z,7.50
2017-10-07T04:48:52.107Z,18.53
2017-10-07T04:50:54.964Z,9.57
2017-10-07T04:52:57.773Z,14.97
2017-10-07T04:55:00.599Z,10.97
2017-10-07T04:57:04.009Z,12.57
2017-10-07T04:59:06.690Z,14.50
2017-10-07T05:01:09.450Z,12.27
2017-10-07T05:03:12.895Z,8.63
2017-10-07T05:05:15.584Z,14.70
2017-10-07T05:07:18.355Z,12.37
2017-10-07T05:09:21.013Z,18.70
2017-10-07T05:11:23.686Z,13.03
2017-10-07T05:13:26.489Z,13.03
2017-10-07T05:15:29.225Z,11.13
2017-10-07T05:17:31.890Z,14.53
2017-10-07T05:19:34.595Z,14.50
2017-10-07T05:21:37.434Z,10.57
2017-10-07T05:23:41.013Z,9.87
2017-10-07T05:25:43.732Z,10.13
2017-10-07T05:27:46.472Z,15.83
2017-10-07T05:29:49.979Z,15.23
2017-10-07T05:31:53.437Z,13.33
2017-10-07T05:33:56.088Z,29.07
2017-10-07T05:35:58.850Z,7.93
2017-10-07T05:38:01.516Z,8.20
2017-10-07T05:40:04.188Z,8.20
2017-10-07T05:42:06.845Z,12.63
2017-10-07T05:44:11.383Z,10.53
2017-10-07T05:46:14.174Z,12.23
2017-10-07T05:48:16.889Z,14.93
2017-10-07T05:50:19.559Z,14.23
2017-10-07T05:52:22.221Z,13.20
2017-10-07T05:54:25.293Z,21.27
2017-10-07T05:56:27.940Z,10.50
2017-10-07T05:58:38.049Z,10.07
2017-10-07T06:00:50.444Z,7.70
2017-10-07T06:02:53.531Z,12.23
2017-10-07T06:04:56.190Z,9.73
2017-10-07T06:06:58.963Z,13.23
2017-10-07T06:09:02.866Z,15.87
2017-10-07T06:11:05.563Z,9.20
2017-10-07T06:13:08.236Z,13.63
2017-10-07T06:15:10.912Z,9.60
2017-10-07T06:17:13.814Z,9.73
2017-10-07T06:19:16.561Z,18.83
2017-10-07T06:21:19.230Z,12.40
2017-10-07T06:23:22.131Z,11.93
2017-10-07T06:25:24.890Z,9.60
2017-10-07T06:27:27.555Z,13.83
2017-10-07T06:29:30.260Z,7.93
2017-10-07T06:31:33.024Z,12.93
2017-10-07T06:33:35.694Z,8.17
2017-10-07T06:35:38.404Z,10.03
2017-10-07T06:37:41.048Z,8.53
2017-10-07T06:39:43.736Z,7.43
2017-10-07T06:41:46.540Z,12.80
2017-10-07T06:43:49.189Z,13.60
2017-10-07T06:45:51.922Z,10.10
2017-10-07T06:47:54.635Z,10.57
2017-10-07T06:49:57.299Z,11.70
2017-10-07T06:52:00.156Z,12.63
2017-10-07T06:54:03.602Z,17.17
2017-10-07T06:56:06.359Z,15.70
2017-10-07T06:58:09.034Z,9.23
2017-10-07T07:00:11.745Z,16.80
2017-10-07T07:02:14.496Z,11.50
2017-10-07T07:04:17.162Z,9.00
2017-10-07T07:06:19.873Z,12.80
2017-10-07T07:08:22.544Z,22.20
2017-10-07T07:10:25.180Z,22.27
2017-10-07T07:12:28.722Z,10.77
2017-10-07T07:14:31.386Z,10.40
2017-10-07T07:16:34.037Z,11.23
2017-10-07T07:18:36.765Z,16.33
2017-10-07T07:20:39.520Z,12.50
2017-10-07T07:22:42.297Z,12.90
2017-10-07T07:24:44.988Z,12.60
2017-10-07T07:26:47.712Z,16.93
2017-10-07T07:28:51.234Z,16.10
2017-10-07T07:30:53.909Z,11.80
2017-10-07T07:32:57.060Z,12.67
2017-10-07T07:35:00.582Z,10.17
2017-10-07T07:37:03.272Z,11.60
2017-10-07T07:39:06.105Z,17.03
2017-10-07T07:41:08.753Z,10.50
2017-10-07T07:43:11.494Z,21.23
2017-10-07T07:45:14.232Z,11.70
2017-10-07T07:47:17.078Z,12.33
2017-10-07T07:49:19.764Z,11.10
2017-10-07T07:51:22.632Z,9.53
2017-10-07T07:53:27.480Z,9.97
2017-10-07T07:55:30.189Z,7.23
2017-10-07T07:57:33.822Z,7.43
2017-10-07T07:59:36.559Z,9.20
2017-10-07T08:01:40.033Z,15.73
2017-10-07T08:03:42.745Z,12.43
2017-10-07T08:05:46.154Z,19.47
2017-10-07T08:07:48.899Z,12.67
2017-10-07T08:09:51.559Z,13.53
2017-10-07T08:11:54.225Z,36.97
2017-10-07T08:13:58.621Z,13.30
2017-10-07T08:16:02.990Z,18.13
2017-10-07T08:18:07.295Z,13.87
2017-10-07T08:20:11.800Z,11.30
2017-10-07T08:22:16.086Z,11.87
2017-10-07T08:24:20.358Z,16.83
2017-10-07T08:26:24.821Z,6.77
2017-10-07T08:28:29.139Z,7.30
2017-10-07T08:30:33.422Z,10.03
2017-10-07T08:32:37.716Z,9.40
2017-10-07T08:34:42.169Z,9.00
2017-10-07T08:36:44.813Z,8.50
2017-10-07T08:38:48.294Z,13.43
2017-10-07T08:40:50.947Z,8.43
2017-10-07T08:42:53.619Z,14.03
2017-10-07T08:44:57.235Z,10.10
2017-10-07T08:46:59.902Z,14.33
2017-10-07T08:49:03.687Z,18.57
2017-10-07T08:51:06.382Z,8.83
2017-10-07T08:53:09.108Z,17.50
2017-10-07T08:55:11.809Z,22.30
2017-10-07T08:57:16.313Z,14.17
2017-10-07T08:59:18.999Z,13.07
2017-10-07T09:01:21.644Z,9.87
2017-10-07T09:03:24.330Z,7.37
2017-10-07T09:05:28.596Z,9.87
2017-10-07T09:07:32.891Z,14.90
2017-10-07T09:09:37.394Z,11.03
2017-10-07T09:11:45.296Z,9.73
2017-10-07T09:13:49.583Z,8.20
2017-10-07T09:15:53.934Z,9.50
2017-10-07T09:17:58.332Z,8.30
2017-10-07T09:20:02.622Z,13.13
2017-10-07T09:22:06.086Z,10.67
2017-10-07T09:24:08.797Z,13.27
2017-10-07T09:26:12.235Z,10.50
2017-10-07T09:28:14.938Z,15.80
2017-10-07T09:30:17.767Z,9.00
2017-10-07T09:32:20.425Z,20.23
2017-10-07T09:34:24.197Z,9.40
2017-10-07T09:36:27.649Z,13.00
2017-10-07T09:38:30.316Z,6.47
2017-10-07T09:40:33.024Z,10.00
2017-10-07T09:42:35.676Z,6.97
2017-10-07T09:44:38.395Z,11.40
2017-10-07T09:46:41.230Z,13.07
2017-10-07T09:48:43.872Z,8.93
2017-10-07T09:50:47.397Z,9.67
2017-10-07T09:52:50.082Z,8.90
2017-10-07T09:54:53.207Z,7.70
2017-10-07T09:56:55.880Z,9.07
2017-10-07T09:58:58.624Z,8.87
2017-10-07T10:01:01.360Z,13.70
2017-10-07T10:03:04.770Z,22.50
2017-10-07T10:05:07.560Z,6.30
2017-10-07T10:07:10.278Z,18.40
2017-10-07T10:09:12.946Z,13.40
2017-10-07T10:11:15.912Z,14.77
2017-10-07T10:13:18.572Z,12.07
2017-10-07T10:15:21.447Z,10.73
2017-10-07T10:17:24.182Z,12.63
2017-10-07T10:19:26.852Z,21.70
2017-10-07T10:21:29.585Z,15.83
2017-10-07T10:23:32.465Z,14.93
2017-10-07T10:25:35.254Z,14.40
2017-10-07T10:27:38.951Z,19.50
2017-10-07T10:29:41.842Z,22.03
2017-10-07T10:31:44.561Z,32.17
2017-10-07T10:33:47.234Z,13.00
2017-10-07T10:35:49.921Z,19.67
2017-10-07T10:37:53.122Z,12.30
2017-10-07T10:39:56.562Z,14.43
2017-10-07T10:41:59.520Z,20.27
2017-10-07T10:44:02.194Z,16.93
2017-10-07T10:46:05.072Z,16.13
2017-10-07T10:48:08.099Z,20.57
2017-10-07T10:50:10.761Z,10.73
2017-10-07T10:52:13.422Z,11.77
2017-10-07T10:54:16.182Z,21.50
2017-10-07T10:56:18.872Z,17.07
2017-10-07T10:58:21.589Z,17.33
2017-10-07T11:00:24.295Z,12.27
2017-10-07T11:02:27.760Z,16.63
2017-10-07T11:04:30.492Z,11.60
2017-10-07T11:06:33.274Z,10.47
2017-10-07T11:08:36.931Z,9.10
2017-10-07T11:10:39.648Z,12.20
2017-10-07T11:12:42.428Z,10.47
2017-10-07T11:14:45.132Z,12.60
2017-10-07T11:16:47.998Z,18.77
2017-10-07T11:18:50.902Z,19.90
2017-10-07T11:20:53.576Z,14.93
2017-10-07T11:22:56.269Z,16.67
2017-10-07T11:24:59.026Z,10.00
2017-10-07T11:27:03.298Z,14.97
2017-10-07T11:29:06.076Z,12.60
2017-10-07T11:31:09.513Z,22.03
2017-10-07T11:33:12.160Z,17.90
2017-10-07T11:35:14.827Z,15.13
2017-10-07T11:37:17.515Z,15.40
2017-10-07T11:39:20.383Z,11.33
2017-10-07T11:41:23.082Z,12.23
2017-10-07T11:43:25.762Z,20.93
2017-10-07T11:45:28.440Z,12.30
2017-10-07T11:47:31.115Z,14.60
2017-10-07T11:49:34.258Z,16.40
2017-10-07T11:51:37.748Z,22.80
2017-10-07T11:53:41.184Z,26.93
2017-10-07T11:55:44.061Z,17.07
2017-10-07T11:57:46.731Z,23.03
2017-10-07T11:59:49.513Z,12.93
2017-10-07T12:01:52.235Z,11.43
2017-10-07T12:03:54.874Z,16.30
2017-10-07T12:05:57.537Z,10.37
2017-10-07T12:08:00.332Z,11.47
2017-10-07T12:10:03.143Z,13.80
2017-10-07T12:12:05.855Z,12.30
2017-10-07T12:14:09.363Z,11.87
2017-10-07T12:16:12.050Z,9.83
2017-10-07T12:18:14.712Z,20.53
2017-10-07T12:20:17.386Z,9.70
2017-10-07T12:22:20.134Z,9.23
2017-10-07T12:24:22.912Z,9.67
2017-10-07T12:26:26.515Z,12.80
2017-10-07T12:28:29.948Z,12.73
2017-10-07T12:30:32.724Z,7.77
2017-10-07T12:32:35.486Z,13.80
2017-10-07T12:34:38.138Z,10.63
2017-10-07T12:36:40.820Z,10.60
2017-10-07T12:38:45.263Z,12.60
2017-10-07T12:40:47.975Z,22.40
2017-10-07T12:42:50.701Z,13.67
2017-10-07T12:44:53.390Z,8.23
2017-10-07T12:46:56.104Z,7.17
2017-10-07T12:48:59.554Z,10.03
2017-10-07T12:51:03.103Z,8.73
2017-10-07T12:53:05.754Z,21.23
2017-10-07T12:55:08.524Z,10.90
2017-10-07T12:57:11.262Z,9.80
2017-10-07T12:59:13.980Z,10.00
2017-10-07T13:01:16.757Z,11.80
2017-10-07T13:03:19.456Z,10.10
2017-10-07T13:05:22.128Z,9.03
2017-10-07T13:07:24.812Z,11.53
2017-10-07T13:09:27.530Z,9.30
2017-10-07T13:11:30.977Z,12.33
2017-10-07T13:13:34.845Z,10.30
2017-10-07T13:15:37.504Z,8.33
2017-10-07T13:17:41.008Z,14.17
2017-10-07T13:19:44.449Z,12.77
2017-10-07T13:21:47.174Z,12.77
2017-10-07T13:23:50.580Z,9.03
2017-10-07T13:25:53.271Z,9.53
2017-10-07T13:27:55.992Z,16.30
2017-10-07T13:29:58.647Z,15.60
2017-10-07T13:32:01.481Z,10.90
2017-10-07T13:34:05.015Z,11.10
2017-10-07T13:36:07.709Z,14.50
2017-10-07T13:38:10.470Z,11.00
2017-10-07T13:40:13.137Z,10.60
2017-10-07T13:42:15.876Z,17.47
2017-10-07T13:44:18.690Z,13.07
2017-10-07T13:46:21.343Z,14.27
2017-10-07T13:48:24.812Z,15.37
2017-10-07T13:50:27.512Z,13.00
2017-10-07T13:52:30.980Z,12.77
2017-10-07T13:54:33.663Z,14.13
2017-10-07T13:56:36.396Z,14.70
2017-10-07T13:58:39.173Z,12.97
2017-10-07T14:00:41.829Z,18.30
2017-10-07T14:02:44.536Z,12.53
2017-10-07T14:04:47.290Z,17.33
2017-10-07T14:06:49.981Z,12.70
2017-10-07T14:08:52.763Z,13.00
2017-10-07T14:10:55.581Z,14.10
2017-10-07T14:12:58.308Z,14.73
2017-10-07T14:15:01.281Z,16.47
2017-10-07T14:17:04.077Z,15.77
2017-10-07T14:19:06.851Z,10.77
2017-10-07T14:21:09.626Z,11.10
2017-10-07T14:23:12.283Z,15.00
2017-10-07T14:25:15.065Z,12.40
2017-10-07T14:27:18.623Z,14.87
2017-10-07T14:29:21.412Z,17.20
2017-10-07T14:31:24.116Z,17.70
2017-10-07T14:33:26.804Z,11.93
2017-10-07T14:35:29.794Z,15.60
2017-10-07T14:37:32.474Z,19.93
2017-10-07T14:39:37.213Z,12.17
2017-10-07T14:41:39.864Z,13.50
2017-10-07T14:43:42.523Z,10.80
2017-10-07T14:45:46.326Z,15.77
2017-10-07T14:47:49.755Z,17.57
2017-10-07T14:49:52.520Z,14.20
2017-10-07T14:51:55.315Z,17.13
2017-10-07T14:53:57.975Z,10.33
2017-10-07T14:56:00.675Z,19.03
2017-10-07T14:58:03.363Z,12.03
2017-10-07T15:00:06.098Z,15.90
2017-10-07T15:02:08.839Z,14.00
2017-10-07T15:04:11.527Z,8.73
2017-10-07T15:06:14.988Z,12.07
2017-10-07T15:08:17.684Z,15.23
2017-10-07T15:10:20.364Z,13.37
2017-10-07T15:12:23.077Z,14.13
2017-10-07T15:14:25.741Z,19.30
2017-10-07T15:16:28.510Z,13.80
2017-10-07T15:18:31.960Z,17.20
2017-10-07T15:20:34.646Z,18.30
2017-10-07T15:22:37.336Z,14.60
2017-10-07T15:24:39.981Z,14.07
2017-10-07T15:26:42.640Z,16.23
2017-10-07T15:28:45.329Z,19.97
2017-10-07T15:30:47.992Z,15.60
2017-10-07T15:32:50.661Z,19.30
2017-10-07T15:34:53.345Z,16.97
2017-10-07T15:36:56.116Z,14.40
2017-10-07T15:39:00.014Z,14.50
2017-10-07T15:41:02.833Z,17.90
2017-10-07T15:43:05.539Z,20.90
2017-10-07T15:45:09.018Z,11.50
2017-10-07T15:47:11.675Z,13.03
2017-10-07T15:49:15.157Z,16.83
2017-10-07T15:51:17.844Z,18.70
2017-10-07T15:53:20.575Z,16.77
2017-10-07T15:55:23.986Z,11.90
2017-10-07T15:57:26.770Z,13.80
2017-10-07T15:59:29.820Z,13.67
2017-10-07T16:01:33.350Z,15.30
2017-10-07T16:03:36.128Z,14.00
2017-10-07T16:05:38.852Z,10.07
2017-10-07T16:07:41.512Z,20.10
2017-10-07T16:09:44.311Z,13.37
2017-10-07T16:11:46.976Z,16.83
2017-10-07T16:13:49.647Z,12.83
2017-10-07T16:15:52.341Z,14.53
2017-10-07T16:17:55.155Z,12.63
2017-10-07T16:19:57.913Z,9.90
2017-10-07T16:22:01.443Z,11.07
2017-10-07T16:24:04.106Z,13.00
2017-10-07T16:26:06.816Z,14.07
2017-10-07T16:28:09.535Z,14.27
2017-10-07T16:30:14.193Z,13.47
2017-10-07T16:32:16.868Z,18.20
2017-10-07T16:34:19.649Z,13.70
2017-10-07T16:36:22.412Z,20.13
2017-10-07T16:38:25.098Z,21.00
2017-10-07T16:40:27.937Z,18.40
2017-10-07T16:42:31.411Z,19.87
2017-10-07T16:44:34.108Z,19.00
2017-10-07T16:46:36.837Z,23.63
2017-10-07T16:48:40.304Z,15.90
2017-10-07T16:50:43.151Z,21.23
2017-10-07T16:52:45.969Z,18.43
2017-10-07T16:54:48.626Z,18.63
2017-10-07T16:56:51.331Z,11.33
2017-10-07T16:58:54.023Z,14.67
2017-10-07T17:00:57.650Z,22.63
2017-10-07T17:03:00.327Z,14.27
2017-10-07T17:05:03.038Z,12.00
2017-10-07T17:07:05.773Z,12.63
2017-10-07T17:09:08.592Z,12.30
2017-10-07T17:11:11.264Z,16.40
2017-10-07T17:13:13.934Z,15.03
2017-10-07T17:15:17.719Z,12.63
2017-10-07T17:17:20.503Z,11.60
2017-10-07T17:19:23.268Z,13.10
2017-10-07T17:21:25.928Z,12.93
2017-10-07T17:23:28.617Z,16.23
2017-10-07T17:25:31.286Z,14.30
2017-10-07T17:27:33.977Z,9.87
2017-10-07T17:29:36.663Z,15.63
2017-10-07T17:31:39.330Z,25.03
2017-10-07T17:33:42.827Z,19.63
2017-10-07T17:35:45.541Z,11.00
2017-10-07T17:37:48.277Z,11.27
2017-10-07T17:39:50.930Z,13.30
2017-10-07T17:41:54.395Z,21.43
2017-10-07T17:43:57.133Z,15.40
2017-10-07T17:45:59.901Z,12.43
2017-10-07T17:48:02.639Z,19.87
2017-10-07T17:50:05.299Z,20.03
2017-10-07T17:52:07.955Z,18.20
2017-10-07T17:54:11.222Z,16.93
2017-10-07T17:56:14.012Z,26.20
2017-10-07T17:58:16.893Z,19.03
2017-10-07T18:00:19.673Z,20.00
2017-10-07T18:02:22.439Z,16.80
2017-10-07T18:04:25.137Z,17.30
2017-10-07T18:06:27.980Z,16.63
2017-10-07T18:08:30.647Z,13.33
2017-10-07T18:10:34.349Z,17.67
2017-10-07T18:12:37.059Z,17.50
2017-10-07T18:14:39.789Z,16.10
2017-10-07T18:16:43.242Z,15.33
2017-10-07T18:18:45.908Z,14.60
2017-10-07T18:20:48.675Z,15.43
2017-10-07T18:22:51.375Z,13.97
2017-10-07T18:24:54.101Z,16.93
2017-10-07T18:26:57.527Z,17.50
2017-10-07T18:29:00.298Z,16.33
2017-10-07T18:31:03.049Z,19.63
2017-10-07T18:33:06.488Z,16.73
2017-10-07T18:35:09.200Z,16.20
2017-10-07T18:37:12.079Z,23.93
2017-10-07T18:39:15.647Z,12.70
2017-10-07T18:41:18.371Z,18.87
2017-10-07T18:43:21.973Z,18.13
2017-10-07T18:45:25.516Z,12.10
2017-10-07T18:47:28.193Z,16.67
2017-10-07T18:49:30.893Z,13.47
2017-10-07T18:51:33.627Z,13.03
2017-10-07T18:53:36.333Z,14.90
2017-10-07T18:55:39.902Z,12.23
2017-10-07T18:57:42.576Z,12.50
2017-10-07T18:59:45.287Z,10.67
2017-10-07T19:01:47.943Z,12.90
2017-10-07T19:03:50.621Z,12.50
2017-10-07T19:05:53.389Z,9.23
2017-10-07T19:07:56.375Z,9.63
2017-10-07T19:09:59.103Z,10.63
2017-10-07T19:12:01.736Z,8.57
2017-10-07T19:14:04.412Z,11.70
2017-10-07T19:16:07.214Z,15.47
2017-10-07T19:18:09.909Z,13.80
2017-10-07T19:20:12.564Z,10.87
2017-10-07T19:22:15.269Z,13.83
2017-10-07T19:24:18.704Z,14.87
2017-10-07T19:26:21.498Z,13.13
2017-10-07T19:28:24.183Z,13.20
2017-10-07T19:30:27.026Z,16.03
2017-10-07T19:32:29.748Z,13.53
2017-10-07T19:34:32.427Z,9.87
2017-10-07T19:36:35.115Z,12.57
2017-10-07T19:38:37.884Z,10.07
2017-10-07T19:40:40.664Z,11.53
2017-10-07T19:42:43.339Z,11.70
2017-10-07T19:44:46.039Z,13.30
2017-10-07T19:46:49.691Z,14.03
2017-10-07T19:48:52.370Z,8.77
2017-10-07T19:50:55.073Z,10.43
2017-10-07T19:52:57.757Z,7.43
2017-10-07T19:55:00.516Z,13.17
2017-10-07T19:57:03.180Z,13.30
2017-10-07T19:59:05.915Z,8.30
2017-10-07T20:01:08.623Z,11.73
2017-10-07T20:03:11.291Z,14.27
2017-10-07T20:05:14.012Z,12.43
2017-10-07T20:07:16.660Z,12.53
2017-10-07T20:09:20.242Z,20.33
2017-10-07T20:11:22.968Z,12.50
2017-10-07T20:13:25.625Z,8.07
2017-10-07T20:15:28.371Z,12.30
2017-10-07T20:17:32.220Z,12.50
2017-10-07T20:19:34.980Z,10.90
2017-10-07T20:21:37.799Z,13.70
2017-10-07T20:23:41.247Z,11.67
2017-10-07T20:25:43.929Z,12.47
2017-10-07T20:27:46.569Z,14.40
2017-10-07T20:29:49.279Z,13.83
2017-10-07T20:31:52.030Z,16.83
2017-10-07T20:33:54.683Z,21.93
2017-10-07T20:35:58.187Z,15.73
2017-10-07T20:38:00.843Z,10.97
2017-10-07T20:40:04.329Z,15.63
2017-10-07T20:42:07.020Z,19.97
2017-10-07T20:44:10.545Z,26.60
2017-10-07T20:46:13.294Z,30.23
2017-10-07T20:48:16.724Z,38.83
2017-10-07T20:50:19.413Z,22.83
2017-10-07T20:52:22.133Z,40.00
2017-10-07T20:54:25.565Z,34.10
2017-10-07T20:56:28.356Z,47.90
2017-10-07T20:58:31.107Z,20.53
2017-10-07T21:00:33.918Z,16.80
2017-10-07T21:02:36.621Z,36.30
2017-10-07T21:04:39.317Z,25.93
2017-10-07T21:06:42.737Z,45.80
2017-10-07T21:08:45.446Z,45.43
2017-10-07T21:10:48.918Z,34.93
2017-10-07T21:12:51.629Z,50.40
2017-10-07T21:14:54.295Z,36.37
2017-10-07T21:16:57.047Z,47.23
2017-10-07T21:18:59.692Z,28.77
2017-10-07T21:21:03.366Z,18.83
2017-10-07T21:23:06.052Z,12.40
2017-10-07T21:25:08.738Z,11.43
2017-10-07T21:27:11.507Z,11.13
2017-10-07T21:29:14.945Z,13.07
2017-10-07T21:31:17.681Z,14.63
2017-10-07T21:33:20.414Z,16.33
2017-10-07T21:35:23.080Z,11.27
2017-10-07T21:37:25.816Z,10.10
2017-10-07T21:39:29.364Z,12.30
2017-10-07T21:41:32.072Z,15.47
2017-10-07T21:43:34.815Z,15.40
2017-10-07T21:45:37.525Z,15.57
2017-10-07T21:47:40.188Z,16.00
2017-10-07T21:49:42.969Z,14.37
2017-10-07T21:51:45.651Z,16.70
2017-10-07T21:53:48.324Z,18.23
2017-10-07T21:55:51.089Z,18.43
2017-10-07T21:57:53.746Z,18.13
2017-10-07T21:59:56.424Z,18.17
2017-10-07T22:01:59.230Z,21.17
2017-10-07T22:04:02.002Z,17.73
2017-10-07T22:06:04.682Z,17.10
2017-10-07T22:08:07.361Z,20.27
2017-10-07T22:10:10.063Z,16.20
2017-10-07T22:12:13.484Z,17.17
2017-10-07T22:14:16.219Z,20.73
2017-10-07T22:16:19.064Z,24.23
2017-10-07T22:18:21.845Z,19.20
2017-10-07T22:20:24.528Z,20.13
2017-10-07T22:22:27.178Z,15.97
2017-10-07T22:24:29.821Z,23.97
2017-10-07T22:26:32.587Z,20.33
2017-10-07T22:28:35.260Z,15.60
2017-10-07T22:30:37.994Z,15.73
2017-10-07T22:32:40.773Z,15.37
2017-10-07T22:34:43.459Z,16.13
2017-10-07T22:36:46.160Z,25.53
2017-10-07T22:38:48.910Z,17.87
2017-10-07T22:40:51.600Z,17.47
2017-10-07T22:42:54.394Z,20.70
2017-10-07T22:44:57.918Z,21.80
2017-10-07T22:47:00.625Z,30.63
2017-10-07T22:49:03.357Z,28.70
2017-10-07T22:51:06.058Z,26.13
2017-10-07T22:53:08.789Z,34.40
2017-10-07T22:55:11.541Z,25.40
2017-10-07T22:57:14.217Z,24.50
2017-10-07T22:59:18.164Z,29.63
2017-10-07T23:01:20.828Z,25.97
2017-10-07T23:03:23.524Z,35.33
2017-10-07T23:05:26.172Z,34.17
2017-10-07T23:07:28.864Z,31.87
2017-10-07T23:09:31.813Z,27.83
2017-10-07T23:11:34.590Z,36.57
2017-10-07T23:13:37.368Z,31.00
2017-10-07T23:15:40.140Z,38.10
2017-10-07T23:17:42.834Z,36.50
2017-10-07T23:19:45.516Z,38.80
2017-10-07T23:21:48.206Z,38.67
2017-10-07T23:23:51.609Z,48.73
2017-10-07T23:25:54.265Z,43.50
2017-10-07T23:27:57.234Z,50.87
2017-10-07T23:29:59.890Z,41.27
2017-10-07T23:32:02.592Z,43.87
2017-10-07T23:34:05.361Z,36.17
2017-10-07T23:36:08.042Z,35.60
2017-10-07T23:38:10.691Z,39.23
2017-10-07T23:40:13.431Z,42.40
2017-10-07T23:42:16.187Z,36.50
2017-10-07T23:44:18.832Z,36.67
2017-10-07T23:46:21.528Z,35.43
2017-10-07T23:48:24.231Z,42.87
2017-10-07T23:50:26.894Z,37.37
2017-10-07T23:52:29.676Z,36.10
2017-10-07T23:54:32.380Z,38.50
2017-10-07T23:56:35.116Z,44.90
2017-10-07T23:58:37.828Z,39.63
